sensor_id;sensor_type;location;lat;lon;timestamp;temperature;humidity
19039;DHT22;9652;49.014;12.052;2023-08-17T00:00:18;24.20;70.50
19039;DHT22;9652;49.014;12.052;2023-08-17T00:02:45;24.10;70.50
19039;DHT22;9652;49.014;12.052;2023-08-17T00:05:12;24.10;70.60
19039;DHT22;9652;49.014;12.052;2023-08-17T00:07:41;24.10;70.80
19039;DHT22;9652;49.014;12.052;2023-08-17T00:10:09;24.10;70.90
19039;DHT22;9652;49.014;12.052;2023-08-17T00:12:36;24.10;70.90
19039;DHT22;9652;49.014;12.052;2023-08-17T00:15:04;24.10;71.10
19039;DHT22;9652;49.014;12.052;2023-08-17T00:17:32;24.10;71.10
19039;DHT22;9652;49.014;12.052;2023-08-17T00:19:59;24.10;71.10
19039;DHT22;9652;49.014;12.052;2023-08-17T00:22:26;24.10;71.90
19039;DHT22;9652;49.014;12.052;2023-08-17T00:24:54;24.10;71.20
19039;DHT22;9652;49.014;12.052;2023-08-17T00:27:21;24.10;71.30
19039;DHT22;9652;49.014;12.052;2023-08-17T00:29:48;24.00;71.20
19039;DHT22;9652;49.014;12.052;2023-08-17T00:32:15;24.00;71.30
19039;DHT22;9652;49.014;12.052;2023-08-17T00:34:42;24.00;71.40
19039;DHT22;9652;49.014;12.052;2023-08-17T00:37:09;23.90;71.40
19039;DHT22;9652;49.014;12.052;2023-08-17T00:39:36;23.90;71.60
19039;DHT22;9652;49.014;12.052;2023-08-17T00:42:05;23.90;71.80
19039;DHT22;9652;49.014;12.052;2023-08-17T00:44:34;23.90;72.10
19039;DHT22;9652;49.014;12.052;2023-08-17T00:47:02;23.90;72.20
19039;DHT22;9652;49.014;12.052;2023-08-17T00:49:31;23.90;72.30
19039;DHT22;9652;49.014;12.052;2023-08-17T00:51:58;23.90;72.40
19039;DHT22;9652;49.014;12.052;2023-08-17T00:54:27;23.90;73.20
19039;DHT22;9652;49.014;12.052;2023-08-17T00:56:56;24.00;72.50
19039;DHT22;9652;49.014;12.052;2023-08-17T00:59:26;24.00;72.50
19039;DHT22;9652;49.014;12.052;2023-08-17T01:01:53;24.00;72.40
19039;DHT22;9652;49.014;12.052;2023-08-17T01:04:20;24.00;72.40
19039;DHT22;9652;49.014;12.052;2023-08-17T01:06:47;24.00;72.30
19039;DHT22;9652;49.014;12.052;2023-08-17T01:09:14;24.00;72.20
19039;DHT22;9652;49.014;12.052;2023-08-17T01:11:47;24.00;72.30
19039;DHT22;9652;49.014;12.052;2023-08-17T01:14:48;24.00;72.50
19039;DHT22;9652;49.014;12.052;2023-08-17T01:17:26;24.00;72.50
19039;DHT22;9652;49.014;12.052;2023-08-17T01:20:00;23.90;72.20
19039;DHT22;9652;49.014;12.052;2023-08-17T01:22:32;23.90;72.10
19039;DHT22;9652;49.014;12.052;2023-08-17T01:25:04;23.90;72.10
19039;DHT22;9652;49.014;12.052;2023-08-17T01:27:36;23.80;72.30
19039;DHT22;9652;49.014;12.052;2023-08-17T01:30:07;23.80;72.40
19039;DHT22;9652;49.014;12.052;2023-08-17T01:32:40;23.80;72.30
19039;DHT22;9652;49.014;12.052;2023-08-17T01:35:18;23.80;72.60
19039;DHT22;9652;49.014;12.052;2023-08-17T01:37:53;23.80;72.50
19039;DHT22;9652;49.014;12.052;2023-08-17T01:40:27;23.70;72.40
19039;DHT22;9652;49.014;12.052;2023-08-17T01:42:57;23.60;72.60
19039;DHT22;9652;49.014;12.052;2023-08-17T01:45:25;23.60;72.60
19039;DHT22;9652;49.014;12.052;2023-08-17T01:47:53;23.60;72.70
19039;DHT22;9652;49.014;12.052;2023-08-17T01:50:21;23.60;72.70
19039;DHT22;9652;49.014;12.052;2023-08-17T01:52:49;23.50;72.80
19039;DHT22;9652;49.014;12.052;2023-08-17T01:55:16;23.50;72.90
19039;DHT22;9652;49.014;12.052;2023-08-17T01:57:45;23.50;73.00
19039;DHT22;9652;49.014;12.052;2023-08-17T02:00:13;23.40;73.10
19039;DHT22;9652;49.014;12.052;2023-08-17T02:02:41;23.40;73.30
19039;DHT22;9652;49.014;12.052;2023-08-17T02:05:08;23.40;73.30
19039;DHT22;9652;49.014;12.052;2023-08-17T02:07:36;23.40;73.30
19039;DHT22;9652;49.014;12.052;2023-08-17T02:10:04;23.30;73.30
19039;DHT22;9652;49.014;12.052;2023-08-17T02:12:32;23.30;73.40
19039;DHT22;9652;49.014;12.052;2023-08-17T02:15:00;23.30;73.50
19039;DHT22;9652;49.014;12.052;2023-08-17T02:17:27;23.20;73.50
19039;DHT22;9652;49.014;12.052;2023-08-17T02:19:54;23.30;73.50
19039;DHT22;9652;49.014;12.052;2023-08-17T02:22:21;23.20;73.60
19039;DHT22;9652;49.014;12.052;2023-08-17T02:24:48;23.20;73.70
19039;DHT22;9652;49.014;12.052;2023-08-17T02:27:15;23.20;73.70
19039;DHT22;9652;49.014;12.052;2023-08-17T02:29:42;23.20;73.80
19039;DHT22;9652;49.014;12.052;2023-08-17T02:32:11;23.10;73.80
19039;DHT22;9652;49.014;12.052;2023-08-17T02:34:38;23.10;74.00
19039;DHT22;9652;49.014;12.052;2023-08-17T02:37:05;23.10;73.90
19039;DHT22;9652;49.014;12.052;2023-08-17T02:39:32;23.10;74.00
19039;DHT22;9652;49.014;12.052;2023-08-17T02:41:59;23.10;74.10
19039;DHT22;9652;49.014;12.052;2023-08-17T02:44:26;23.00;74.10
19039;DHT22;9652;49.014;12.052;2023-08-17T02:46:54;23.00;74.10
19039;DHT22;9652;49.014;12.052;2023-08-17T02:49:22;23.00;74.20
19039;DHT22;9652;49.014;12.052;2023-08-17T02:51:49;23.00;74.30
19039;DHT22;9652;49.014;12.052;2023-08-17T02:54:16;23.00;74.30
19039;DHT22;9652;49.014;12.052;2023-08-17T02:56:43;22.90;74.30
19039;DHT22;9652;49.014;12.052;2023-08-17T02:59:10;22.90;74.40
19039;DHT22;9652;49.014;12.052;2023-08-17T03:01:38;22.90;74.40
19039;DHT22;9652;49.014;12.052;2023-08-17T03:04:05;22.90;74.50
19039;DHT22;9652;49.014;12.052;2023-08-17T03:06:34;22.90;74.50
19039;DHT22;9652;49.014;12.052;2023-08-17T03:09:02;22.80;74.70
19039;DHT22;9652;49.014;12.052;2023-08-17T03:11:29;22.90;74.70
19039;DHT22;9652;49.014;12.052;2023-08-17T03:13:57;22.80;74.50
19039;DHT22;9652;49.014;12.052;2023-08-17T03:16:26;22.80;74.50
19039;DHT22;9652;49.014;12.052;2023-08-17T03:18:55;22.90;74.50
19039;DHT22;9652;49.014;12.052;2023-08-17T03:21:23;22.80;74.50
19039;DHT22;9652;49.014;12.052;2023-08-17T03:23:52;22.80;74.50
19039;DHT22;9652;49.014;12.052;2023-08-17T03:26:19;22.70;74.60
19039;DHT22;9652;49.014;12.052;2023-08-17T03:28:46;22.70;74.50
19039;DHT22;9652;49.014;12.052;2023-08-17T03:31:13;22.70;74.70
19039;DHT22;9652;49.014;12.052;2023-08-17T03:33:41;22.70;74.80
19039;DHT22;9652;49.014;12.052;2023-08-17T03:36:08;22.60;74.90
19039;DHT22;9652;49.014;12.052;2023-08-17T03:38:36;22.60;74.90
19039;DHT22;9652;49.014;12.052;2023-08-17T03:41:06;22.60;75.00
19039;DHT22;9652;49.014;12.052;2023-08-17T03:43:34;22.60;75.00
19039;DHT22;9652;49.014;12.052;2023-08-17T03:46:03;22.60;75.00
19039;DHT22;9652;49.014;12.052;2023-08-17T03:48:30;22.60;75.10
19039;DHT22;9652;49.014;12.052;2023-08-17T03:50:58;22.50;75.00
19039;DHT22;9652;49.014;12.052;2023-08-17T03:53:27;22.60;75.20
19039;DHT22;9652;49.014;12.052;2023-08-17T03:55:54;22.50;75.30
19039;DHT22;9652;49.014;12.052;2023-08-17T03:58:22;22.50;75.40
19039;DHT22;9652;49.014;12.052;2023-08-17T04:00:53;22.50;75.50
19039;DHT22;9652;49.014;12.052;2023-08-17T04:03:26;22.50;75.50
19039;DHT22;9652;49.014;12.052;2023-08-17T04:05:53;22.50;75.60
19039;DHT22;9652;49.014;12.052;2023-08-17T04:08:20;22.40;75.60
19039;DHT22;9652;49.014;12.052;2023-08-17T04:10:47;22.40;75.60
19039;DHT22;9652;49.014;12.052;2023-08-17T04:13:14;22.40;75.70
19039;DHT22;9652;49.014;12.052;2023-08-17T04:15:42;22.40;75.80
19039;DHT22;9652;49.014;12.052;2023-08-17T04:18:09;22.40;75.90
19039;DHT22;9652;49.014;12.052;2023-08-17T04:20:36;22.40;75.80
19039;DHT22;9652;49.014;12.052;2023-08-17T04:23:03;22.40;76.00
19039;DHT22;9652;49.014;12.052;2023-08-17T04:25:31;22.50;76.10
19039;DHT22;9652;49.014;12.052;2023-08-17T04:27:58;22.40;76.10
19039;DHT22;9652;49.014;12.052;2023-08-17T04:30:25;22.50;76.30
19039;DHT22;9652;49.014;12.052;2023-08-17T04:32:58;22.50;76.40
19039;DHT22;9652;49.014;12.052;2023-08-17T04:35:25;22.50;76.60
19039;DHT22;9652;49.014;12.052;2023-08-17T04:37:53;22.50;76.60
19039;DHT22;9652;49.014;12.052;2023-08-17T04:40:20;22.50;76.70
19039;DHT22;9652;49.014;12.052;2023-08-17T04:42:48;22.60;76.80
19039;DHT22;9652;49.014;12.052;2023-08-17T04:45:16;22.60;76.80
19039;DHT22;9652;49.014;12.052;2023-08-17T04:47:45;22.70;77.00
19039;DHT22;9652;49.014;12.052;2023-08-17T04:50:14;22.70;77.00
19039;DHT22;9652;49.014;12.052;2023-08-17T04:52:42;22.80;77.10
19039;DHT22;9652;49.014;12.052;2023-08-17T04:55:10;22.80;77.00
19039;DHT22;9652;49.014;12.052;2023-08-17T04:57:37;22.90;76.90
19039;DHT22;9652;49.014;12.052;2023-08-17T05:00:06;22.90;76.80
19039;DHT22;9652;49.014;12.052;2023-08-17T05:02:35;23.00;76.80
19039;DHT22;9652;49.014;12.052;2023-08-17T05:05:04;23.00;76.70
19039;DHT22;9652;49.014;12.052;2023-08-17T05:07:34;23.00;76.50
19039;DHT22;9652;49.014;12.052;2023-08-17T05:10:01;23.10;76.50
19039;DHT22;9652;49.014;12.052;2023-08-17T05:12:32;23.10;76.40
19039;DHT22;9652;49.014;12.052;2023-08-17T05:15:00;23.20;76.40
19039;DHT22;9652;49.014;12.052;2023-08-17T05:17:27;23.20;76.30
19039;DHT22;9652;49.014;12.052;2023-08-17T05:19:55;23.30;76.20
19039;DHT22;9652;49.014;12.052;2023-08-17T05:22:22;23.30;76.00
19039;DHT22;9652;49.014;12.052;2023-08-17T05:24:51;23.30;75.90
19039;DHT22;9652;49.014;12.052;2023-08-17T05:27:18;23.30;75.90
19039;DHT22;9652;49.014;12.052;2023-08-17T05:29:47;23.40;76.00
19039;DHT22;9652;49.014;12.052;2023-08-17T05:32:14;23.40;76.00
19039;DHT22;9652;49.014;12.052;2023-08-17T05:34:42;23.40;76.00
19039;DHT22;9652;49.014;12.052;2023-08-17T05:37:09;23.40;76.00
19039;DHT22;9652;49.014;12.052;2023-08-17T05:39:36;23.40;76.00
19039;DHT22;9652;49.014;12.052;2023-08-17T05:42:05;23.50;76.10
19039;DHT22;9652;49.014;12.052;2023-08-17T05:44:33;23.50;76.10
19039;DHT22;9652;49.014;12.052;2023-08-17T05:47:00;23.50;76.10
19039;DHT22;9652;49.014;12.052;2023-08-17T05:49:27;23.50;76.10
19039;DHT22;9652;49.014;12.052;2023-08-17T05:51:54;23.60;76.30
19039;DHT22;9652;49.014;12.052;2023-08-17T05:54:21;23.60;76.30
19039;DHT22;9652;49.014;12.052;2023-08-17T05:56:48;23.70;76.30
19039;DHT22;9652;49.014;12.052;2023-08-17T05:59:17;23.80;76.30
19039;DHT22;9652;49.014;12.052;2023-08-17T06:01:44;23.90;76.30
19039;DHT22;9652;49.014;12.052;2023-08-17T06:04:11;23.90;76.10
19039;DHT22;9652;49.014;12.052;2023-08-17T06:06:38;24.00;76.00
19039;DHT22;9652;49.014;12.052;2023-08-17T06:09:05;24.10;76.00
19039;DHT22;9652;49.014;12.052;2023-08-17T06:11:33;24.10;75.90
19039;DHT22;9652;49.014;12.052;2023-08-17T06:14:00;24.20;75.70
19039;DHT22;9652;49.014;12.052;2023-08-17T06:16:28;24.20;75.40
19039;DHT22;9652;49.014;12.052;2023-08-17T06:18:55;24.30;75.40
19039;DHT22;9652;49.014;12.052;2023-08-17T06:21:22;24.30;75.30
19039;DHT22;9652;49.014;12.052;2023-08-17T06:23:49;24.40;75.40
19039;DHT22;9652;49.014;12.052;2023-08-17T06:26:17;24.40;75.40
19039;DHT22;9652;49.014;12.052;2023-08-17T06:28:44;24.40;75.40
19039;DHT22;9652;49.014;12.052;2023-08-17T06:31:14;24.50;75.40
19039;DHT22;9652;49.014;12.052;2023-08-17T06:33:42;24.60;75.20
19039;DHT22;9652;49.014;12.052;2023-08-17T06:36:09;24.60;75.10
19039;DHT22;9652;49.014;12.052;2023-08-17T06:38:38;24.70;75.00
19039;DHT22;9652;49.014;12.052;2023-08-17T06:41:06;24.90;75.00
19039;DHT22;9652;49.014;12.052;2023-08-17T06:43:33;24.90;74.90
19039;DHT22;9652;49.014;12.052;2023-08-17T06:46:00;25.00;74.60
19039;DHT22;9652;49.014;12.052;2023-08-17T06:48:27;25.10;74.50
19039;DHT22;9652;49.014;12.052;2023-08-17T06:50:56;25.10;74.20
19039;DHT22;9652;49.014;12.052;2023-08-17T06:53:23;25.20;74.00
19039;DHT22;9652;49.014;12.052;2023-08-17T06:55:50;25.30;74.00
19039;DHT22;9652;49.014;12.052;2023-08-17T06:58:17;25.40;73.80
19039;DHT22;9652;49.014;12.052;2023-08-17T07:00:44;25.50;73.60
19039;DHT22;9652;49.014;12.052;2023-08-17T07:03:11;25.50;73.30
19039;DHT22;9652;49.014;12.052;2023-08-17T07:05:38;25.60;72.90
19039;DHT22;9652;49.014;12.052;2023-08-17T07:08:07;25.70;72.60
19039;DHT22;9652;49.014;12.052;2023-08-17T07:10:34;25.80;72.40
19039;DHT22;9652;49.014;12.052;2023-08-17T07:13:01;25.90;72.40
19039;DHT22;9652;49.014;12.052;2023-08-17T07:15:28;26.00;72.10
19039;DHT22;9652;49.014;12.052;2023-08-17T07:17:56;26.00;71.90
19039;DHT22;9652;49.014;12.052;2023-08-17T07:20:23;26.20;71.80
19039;DHT22;9652;49.014;12.052;2023-08-17T07:22:50;26.20;71.30
19039;DHT22;9652;49.014;12.052;2023-08-17T07:25:19;26.30;71.10
19039;DHT22;9652;49.014;12.052;2023-08-17T07:27:46;26.30;70.70
19039;DHT22;9652;49.014;12.052;2023-08-17T07:30:13;26.40;70.60
19039;DHT22;9652;49.014;12.052;2023-08-17T07:32:40;26.50;70.50
19039;DHT22;9652;49.014;12.052;2023-08-17T07:35:07;26.60;70.40
19039;DHT22;9652;49.014;12.052;2023-08-17T07:37:35;26.60;70.20
19039;DHT22;9652;49.014;12.052;2023-08-17T07:40:03;26.70;70.10
19039;DHT22;9652;49.014;12.052;2023-08-17T07:42:32;26.80;69.90
19039;DHT22;9652;49.014;12.052;2023-08-17T07:44:59;26.90;69.60
19039;DHT22;9652;49.014;12.052;2023-08-17T07:47:26;26.90;69.30
19039;DHT22;9652;49.014;12.052;2023-08-17T07:49:53;27.00;69.30
19039;DHT22;9652;49.014;12.052;2023-08-17T07:52:20;27.00;69.30
19039;DHT22;9652;49.014;12.052;2023-08-17T07:54:48;27.10;69.30
19039;DHT22;9652;49.014;12.052;2023-08-17T07:57:15;27.10;69.20
19039;DHT22;9652;49.014;12.052;2023-08-17T07:59:43;27.20;69.20
19039;DHT22;9652;49.014;12.052;2023-08-17T08:02:10;27.20;68.80
19039;DHT22;9652;49.014;12.052;2023-08-17T08:04:37;27.40;68.70
19039;DHT22;9652;49.014;12.052;2023-08-17T08:07:04;27.40;68.30
19039;DHT22;9652;49.014;12.052;2023-08-17T08:09:32;27.40;68.20
19039;DHT22;9652;49.014;12.052;2023-08-17T08:11:59;27.50;68.30
19039;DHT22;9652;49.014;12.052;2023-08-17T08:14:27;27.50;67.90
19039;DHT22;9652;49.014;12.052;2023-08-17T08:16:56;27.60;67.80
19039;DHT22;9652;49.014;12.052;2023-08-17T08:19:23;27.60;67.60
19039;DHT22;9652;49.014;12.052;2023-08-17T08:21:50;27.70;67.70
19039;DHT22;9652;49.014;12.052;2023-08-17T08:24:17;27.80;67.60
19039;DHT22;9652;49.014;12.052;2023-08-17T08:26:44;27.80;67.40
19039;DHT22;9652;49.014;12.052;2023-08-17T08:29:11;27.80;67.20
19039;DHT22;9652;49.014;12.052;2023-08-17T08:31:38;27.90;67.30
19039;DHT22;9652;49.014;12.052;2023-08-17T08:34:06;27.90;67.20
19039;DHT22;9652;49.014;12.052;2023-08-17T08:36:33;28.00;67.10
19039;DHT22;9652;49.014;12.052;2023-08-17T08:39:00;28.00;66.90
19039;DHT22;9652;49.014;12.052;2023-08-17T08:41:29;28.10;66.60
19039;DHT22;9652;49.014;12.052;2023-08-17T08:43:57;28.10;66.50
19039;DHT22;9652;49.014;12.052;2023-08-17T08:46:26;28.20;66.60
19039;DHT22;9652;49.014;12.052;2023-08-17T08:48:58;28.20;66.30
19039;DHT22;9652;49.014;12.052;2023-08-17T08:51:27;28.30;66.20
19039;DHT22;9652;49.014;12.052;2023-08-17T08:54:00;28.30;65.90
19039;DHT22;9652;49.014;12.052;2023-08-17T08:56:31;28.40;65.60
19039;DHT22;9652;49.014;12.052;2023-08-17T08:59:01;28.40;65.60
19039;DHT22;9652;49.014;12.052;2023-08-17T09:01:30;28.50;65.70
19039;DHT22;9652;49.014;12.052;2023-08-17T09:03:58;28.60;65.70
19039;DHT22;9652;49.014;12.052;2023-08-17T09:06:29;28.60;65.40
19039;DHT22;9652;49.014;12.052;2023-08-17T09:08:57;28.70;65.10
19039;DHT22;9652;49.014;12.052;2023-08-17T09:11:26;28.70;65.30
19039;DHT22;9652;49.014;12.052;2023-08-17T09:13:53;28.80;65.00
19039;DHT22;9652;49.014;12.052;2023-08-17T09:16:21;28.90;65.00
19039;DHT22;9652;49.014;12.052;2023-08-17T09:18:48;28.90;64.70
19039;DHT22;9652;49.014;12.052;2023-08-17T09:21:21;28.90;64.40
19039;DHT22;9652;49.014;12.052;2023-08-17T09:23:54;29.00;63.70
19039;DHT22;9652;49.014;12.052;2023-08-17T09:26:22;29.00;63.90
19039;DHT22;9652;49.014;12.052;2023-08-17T09:28:50;29.10;64.00
19039;DHT22;9652;49.014;12.052;2023-08-17T09:31:20;29.10;63.70
19039;DHT22;9652;49.014;12.052;2023-08-17T09:33:49;29.20;63.10
19039;DHT22;9652;49.014;12.052;2023-08-17T09:36:20;29.30;63.10
19039;DHT22;9652;49.014;12.052;2023-08-17T09:38:48;29.30;62.50
19039;DHT22;9652;49.014;12.052;2023-08-17T09:41:18;29.40;62.70
19039;DHT22;9652;49.014;12.052;2023-08-17T09:43:46;29.40;62.30
19039;DHT22;9652;49.014;12.052;2023-08-17T09:46:14;29.70;62.70
19039;DHT22;9652;49.014;12.052;2023-08-17T09:48:43;29.60;62.20
19039;DHT22;9652;49.014;12.052;2023-08-17T09:51:14;29.60;62.00
19039;DHT22;9652;49.014;12.052;2023-08-17T09:53:42;29.70;61.60
19039;DHT22;9652;49.014;12.052;2023-08-17T09:56:10;29.80;61.70
19039;DHT22;9652;49.014;12.052;2023-08-17T09:58:40;29.80;61.60
19039;DHT22;9652;49.014;12.052;2023-08-17T10:01:09;29.80;61.20
19039;DHT22;9652;49.014;12.052;2023-08-17T10:03:39;29.90;60.90
19039;DHT22;9652;49.014;12.052;2023-08-17T10:06:13;29.90;60.80
19039;DHT22;9652;49.014;12.052;2023-08-17T10:08:46;30.00;60.70
19039;DHT22;9652;49.014;12.052;2023-08-17T10:11:17;30.00;60.50
19039;DHT22;9652;49.014;12.052;2023-08-17T10:13:51;30.20;60.50
19039;DHT22;9652;49.014;12.052;2023-08-17T10:16:23;30.20;59.90
19039;DHT22;9652;49.014;12.052;2023-08-17T10:18:55;30.20;60.00
19039;DHT22;9652;49.014;12.052;2023-08-17T10:21:36;30.30;59.90
19039;DHT22;9652;49.014;12.052;2023-08-17T10:24:07;30.40;59.60
19039;DHT22;9652;49.014;12.052;2023-08-17T10:26:34;30.40;59.40
19039;DHT22;9652;49.014;12.052;2023-08-17T10:29:03;30.50;59.40
19039;DHT22;9652;49.014;12.052;2023-08-17T10:31:34;30.50;59.10
19039;DHT22;9652;49.014;12.052;2023-08-17T10:34:01;30.50;59.10
19039;DHT22;9652;49.014;12.052;2023-08-17T10:36:30;30.60;59.10
19039;DHT22;9652;49.014;12.052;2023-08-17T10:39:17;30.70;59.00
19039;DHT22;9652;49.014;12.052;2023-08-17T10:41:47;30.70;58.20
19039;DHT22;9652;49.014;12.052;2023-08-17T10:44:17;30.80;58.60
19039;DHT22;9652;49.014;12.052;2023-08-17T10:46:44;30.80;58.50
19039;DHT22;9652;49.014;12.052;2023-08-17T10:49:25;30.90;58.30
19039;DHT22;9652;49.014;12.052;2023-08-17T10:52:02;30.90;57.40
19039;DHT22;9652;49.014;12.052;2023-08-17T10:54:37;31.00;57.40
19039;DHT22;9652;49.014;12.052;2023-08-17T10:57:27;31.00;57.20
19039;DHT22;9652;49.014;12.052;2023-08-17T11:00:15;31.20;56.90
19039;DHT22;9652;49.014;12.052;2023-08-17T11:02:51;31.10;56.50
19039;DHT22;9652;49.014;12.052;2023-08-17T11:05:39;31.10;57.20
19039;DHT22;9652;49.014;12.052;2023-08-17T11:08:09;31.20;56.40
19039;DHT22;9652;49.014;12.052;2023-08-17T11:10:39;31.20;56.90
19039;DHT22;9652;49.014;12.052;2023-08-17T11:13:08;31.20;56.70
19039;DHT22;9652;49.014;12.052;2023-08-17T11:15:38;31.20;56.60
19039;DHT22;9652;49.014;12.052;2023-08-17T11:18:08;31.40;56.40
19039;DHT22;9652;49.014;12.052;2023-08-17T11:20:37;31.40;56.40
19039;DHT22;9652;49.014;12.052;2023-08-17T11:23:06;31.40;56.40
19039;DHT22;9652;49.014;12.052;2023-08-17T11:25:34;31.40;55.90
19039;DHT22;9652;49.014;12.052;2023-08-17T11:28:02;31.40;55.70
19039;DHT22;9652;49.014;12.052;2023-08-17T11:30:30;31.40;55.80
19039;DHT22;9652;49.014;12.052;2023-08-17T11:33:00;31.50;55.60
19039;DHT22;9652;49.014;12.052;2023-08-17T11:35:28;31.50;55.50
19039;DHT22;9652;49.014;12.052;2023-08-17T11:37:55;31.50;55.40
19039;DHT22;9652;49.014;12.052;2023-08-17T11:40:22;31.60;55.20
19039;DHT22;9652;49.014;12.052;2023-08-17T11:42:49;31.60;55.10
19039;DHT22;9652;49.014;12.052;2023-08-17T11:45:16;31.60;54.90
19039;DHT22;9652;49.014;12.052;2023-08-17T11:47:43;31.70;55.00
19039;DHT22;9652;49.014;12.052;2023-08-17T11:50:12;31.60;54.70
19039;DHT22;9652;49.014;12.052;2023-08-17T11:52:40;31.70;54.60
19039;DHT22;9652;49.014;12.052;2023-08-17T11:55:08;31.70;54.50
19039;DHT22;9652;49.014;12.052;2023-08-17T11:57:36;31.70;54.50
19039;DHT22;9652;49.014;12.052;2023-08-17T12:00:05;31.80;54.30
19039;DHT22;9652;49.014;12.052;2023-08-17T12:02:35;31.80;54.20
19039;DHT22;9652;49.014;12.052;2023-08-17T12:05:07;31.80;54.00
19039;DHT22;9652;49.014;12.052;2023-08-17T12:07:36;31.80;54.00
19039;DHT22;9652;49.014;12.052;2023-08-17T12:10:04;31.90;54.10
19039;DHT22;9652;49.014;12.052;2023-08-17T12:12:36;31.90;53.70
19039;DHT22;9652;49.014;12.052;2023-08-17T12:15:05;31.90;53.40
19039;DHT22;9652;49.014;12.052;2023-08-17T12:17:33;32.00;53.60
19039;DHT22;9652;49.014;12.052;2023-08-17T12:20:00;32.00;53.50
19039;DHT22;9652;49.014;12.052;2023-08-17T12:22:27;32.00;53.70
19039;DHT22;9652;49.014;12.052;2023-08-17T12:24:56;32.10;53.60
19039;DHT22;9652;49.014;12.052;2023-08-17T12:27:23;32.10;53.50
19039;DHT22;9652;49.014;12.052;2023-08-17T12:29:51;32.10;53.60
19039;DHT22;9652;49.014;12.052;2023-08-17T12:32:19;32.20;53.20
19039;DHT22;9652;49.014;12.052;2023-08-17T12:34:47;32.20;53.10
19039;DHT22;9652;49.014;12.052;2023-08-17T12:37:19;32.30;52.90
19039;DHT22;9652;49.014;12.052;2023-08-17T12:39:47;32.30;52.40
19039;DHT22;9652;49.014;12.052;2023-08-17T12:42:16;32.40;52.80
19039;DHT22;9652;49.014;12.052;2023-08-17T12:44:44;32.40;52.50
19039;DHT22;9652;49.014;12.052;2023-08-17T12:47:11;32.50;52.60
19039;DHT22;9652;49.014;12.052;2023-08-17T12:49:38;32.50;53.00
19039;DHT22;9652;49.014;12.052;2023-08-17T12:52:05;32.50;52.20
19039;DHT22;9652;49.014;12.052;2023-08-17T12:54:32;32.60;52.10
19039;DHT22;9652;49.014;12.052;2023-08-17T12:56:59;32.60;52.00
19039;DHT22;9652;49.014;12.052;2023-08-17T12:59:28;32.60;51.90
19039;DHT22;9652;49.014;12.052;2023-08-17T13:01:55;32.70;51.60
19039;DHT22;9652;49.014;12.052;2023-08-17T13:04:22;32.80;51.60
19039;DHT22;9652;49.014;12.052;2023-08-17T13:06:49;32.80;51.30
19039;DHT22;9652;49.014;12.052;2023-08-17T13:09:16;32.80;51.00
19039;DHT22;9652;49.014;12.052;2023-08-17T13:11:44;32.90;50.90
19039;DHT22;9652;49.014;12.052;2023-08-17T13:14:12;33.00;50.80
19039;DHT22;9652;49.014;12.052;2023-08-17T13:16:42;33.00;50.60
19039;DHT22;9652;49.014;12.052;2023-08-17T13:19:09;33.00;50.50
19039;DHT22;9652;49.014;12.052;2023-08-17T13:21:36;33.10;50.40
19039;DHT22;9652;49.014;12.052;2023-08-17T13:24:04;33.20;50.30
19039;DHT22;9652;49.014;12.052;2023-08-17T13:26:32;33.20;50.40
19039;DHT22;9652;49.014;12.052;2023-08-17T13:28:59;33.30;50.40
19039;DHT22;9652;49.014;12.052;2023-08-17T13:31:26;33.40;50.50
19039;DHT22;9652;49.014;12.052;2023-08-17T13:33:55;33.40;50.60
19039;DHT22;9652;49.014;12.052;2023-08-17T13:36:22;33.50;50.50
19039;DHT22;9652;49.014;12.052;2023-08-17T13:38:49;33.60;50.60
19039;DHT22;9652;49.014;12.052;2023-08-17T13:41:16;33.80;50.80
19039;DHT22;9652;49.014;12.052;2023-08-17T13:43:43;34.00;50.80
19039;DHT22;9652;49.014;12.052;2023-08-17T13:46:10;34.20;50.80
19039;DHT22;9652;49.014;12.052;2023-08-17T13:48:38;34.50;50.70
19039;DHT22;9652;49.014;12.052;2023-08-17T13:51:07;34.70;50.30
19039;DHT22;9652;49.014;12.052;2023-08-17T13:53:34;35.10;50.10
19039;DHT22;9652;49.014;12.052;2023-08-17T13:56:01;35.50;50.20
19039;DHT22;9652;49.014;12.052;2023-08-17T13:58:28;36.00;49.80
19039;DHT22;9652;49.014;12.052;2023-08-17T14:00:55;36.50;48.80
19039;DHT22;9652;49.014;12.052;2023-08-17T14:03:22;37.00;47.80
19039;DHT22;9652;49.014;12.052;2023-08-17T14:05:50;37.40;46.90
19039;DHT22;9652;49.014;12.052;2023-08-17T14:08:18;37.70;46.10
19039;DHT22;9652;49.014;12.052;2023-08-17T14:10:46;38.00;45.10
19039;DHT22;9652;49.014;12.052;2023-08-17T14:13:14;38.10;44.60
19039;DHT22;9652;49.014;12.052;2023-08-17T14:15:41;38.30;44.30
19039;DHT22;9652;49.014;12.052;2023-08-17T14:18:08;38.50;44.00
19039;DHT22;9652;49.014;12.052;2023-08-17T14:20:35;38.50;43.30
19039;DHT22;9652;49.014;12.052;2023-08-17T14:23:02;38.60;43.00
19039;DHT22;9652;49.014;12.052;2023-08-17T14:25:30;38.70;42.50
19039;DHT22;9652;49.014;12.052;2023-08-17T14:27:58;38.80;42.20
19039;DHT22;9652;49.014;12.052;2023-08-17T14:30:25;38.90;42.30
19039;DHT22;9652;49.014;12.052;2023-08-17T14:32:52;38.90;42.00
19039;DHT22;9652;49.014;12.052;2023-08-17T14:35:19;39.00;41.60
19039;DHT22;9652;49.014;12.052;2023-08-17T14:37:46;39.00;41.30
19039;DHT22;9652;49.014;12.052;2023-08-17T14:40:13;39.10;41.00
19039;DHT22;9652;49.014;12.052;2023-08-17T14:42:42;39.10;40.70
19039;DHT22;9652;49.014;12.052;2023-08-17T14:45:10;39.20;40.50
19039;DHT22;9652;49.014;12.052;2023-08-17T14:47:38;39.20;39.80
19039;DHT22;9652;49.014;12.052;2023-08-17T14:50:06;39.20;39.60
19039;DHT22;9652;49.014;12.052;2023-08-17T14:52:33;39.30;39.80
19039;DHT22;9652;49.014;12.052;2023-08-17T14:55:00;39.40;39.80
19039;DHT22;9652;49.014;12.052;2023-08-17T14:57:29;39.40;39.50
19039;DHT22;9652;49.014;12.052;2023-08-17T14:59:57;39.50;39.40
19039;DHT22;9652;49.014;12.052;2023-08-17T15:02:24;39.50;38.70
19039;DHT22;9652;49.014;12.052;2023-08-17T15:04:53;39.50;38.70
19039;DHT22;9652;49.014;12.052;2023-08-17T15:07:20;39.60;38.50
19039;DHT22;9652;49.014;12.052;2023-08-17T15:09:47;39.60;38.50
19039;DHT22;9652;49.014;12.052;2023-08-17T15:12:15;39.50;38.10
19039;DHT22;9652;49.014;12.052;2023-08-17T15:14:42;39.50;38.00
19039;DHT22;9652;49.014;12.052;2023-08-17T15:17:10;39.60;38.00
19039;DHT22;9652;49.014;12.052;2023-08-17T15:19:38;39.60;38.20
19039;DHT22;9652;49.014;12.052;2023-08-17T15:22:05;39.60;38.20
19039;DHT22;9652;49.014;12.052;2023-08-17T15:24:32;39.70;38.10
19039;DHT22;9652;49.014;12.052;2023-08-17T15:26:59;39.80;37.60
19039;DHT22;9652;49.014;12.052;2023-08-17T15:29:26;39.90;37.50
19039;DHT22;9652;49.014;12.052;2023-08-17T15:31:53;39.90;37.30
19039;DHT22;9652;49.014;12.052;2023-08-17T15:34:21;40.00;37.30
19039;DHT22;9652;49.014;12.052;2023-08-17T15:36:48;40.10;36.80